createdAt,value
2023-05-13T00:01:38.951Z,82.60
2023-05-13T00:04:09.593Z,82.60
2023-05-13T00:06:37.868Z,82.50
2023-05-13T00:09:11.735Z,82.40
2023-05-13T00:14:30.804Z,82.50
2023-05-13T00:17:04.883Z,82.60
2023-05-13T00:19:37.087Z,82.50
2023-05-13T00:22:05.675Z,82.50
2023-05-13T00:24:50.788Z,82.60
2023-05-13T00:27:21.323Z,82.50
2023-05-13T00:29:57.153Z,82.50
2023-05-13T00:32:27.753Z,82.50
2023-05-13T00:34:57.251Z,82.50
2023-05-13T00:37:28.257Z,82.50
2023-05-13T00:40:01.510Z,82.50
2023-05-13T00:42:29.696Z,82.50
2023-05-13T00:45:00.200Z,82.40
2023-05-13T00:47:31.585Z,82.40
2023-05-13T00:50:01.217Z,82.40
2023-05-13T00:52:31.708Z,82.40
2023-05-13T00:55:09.661Z,82.40
2023-05-13T00:57:43.776Z,82.40
2023-05-13T01:00:34.170Z,82.40
2023-05-13T01:03:12.143Z,82.40
2023-05-13T01:05:51.439Z,82.40
2023-05-13T01:08:32.251Z,82.40
2023-05-13T01:11:18.080Z,82.30
2023-05-13T01:13:56.913Z,82.30
2023-05-13T01:16:32.285Z,82.40
2023-05-13T01:19:15.390Z,82.40
2023-05-13T01:21:56.799Z,82.50
2023-05-13T01:24:27.028Z,82.50
2023-05-13T01:26:55.645Z,82.50
2023-05-13T01:29:27.522Z,82.60
2023-05-13T01:32:01.704Z,82.50
2023-05-13T01:34:32.063Z,82.60
2023-05-13T01:37:02.083Z,82.60
2023-05-13T01:39:35.862Z,82.70
2023-05-13T01:42:07.483Z,82.70
2023-05-13T01:44:38.261Z,82.60
2023-05-13T01:47:07.676Z,82.60
2023-05-13T01:49:40.226Z,82.70
2023-05-13T01:52:12.069Z,82.60
2023-05-13T01:54:41.738Z,82.60
2023-05-13T01:57:15.933Z,82.70
2023-05-13T01:59:55.301Z,82.70
2023-05-13T02:02:32.252Z,82.60
2023-05-13T02:05:03.640Z,82.80
2023-05-13T02:07:52.676Z,82.70
2023-05-13T02:10:24.426Z,83.00
2023-05-13T02:12:53.000Z,83.10
2023-05-13T02:15:21.197Z,83.10
2023-05-13T02:17:56.908Z,83.10
2023-05-13T02:23:11.813Z,83.20
2023-05-13T02:25:42.441Z,83.30
2023-05-13T02:28:11.899Z,83.20
2023-05-13T02:30:42.301Z,83.30
2023-05-13T02:33:24.300Z,83.30
2023-05-13T02:36:05.079Z,83.30
2023-05-13T02:38:40.503Z,83.20
2023-05-13T02:41:11.128Z,83.20
2023-05-13T02:43:49.798Z,83.20
2023-05-13T02:46:28.267Z,83.10
2023-05-13T02:48:58.828Z,83.20
2023-05-13T02:51:28.489Z,83.20
2023-05-13T02:54:02.387Z,83.10
2023-05-13T02:56:31.794Z,83.10
2023-05-13T02:59:02.417Z,83.10
2023-05-13T03:01:34.558Z,83.00
2023-05-13T03:04:12.075Z,83.20
2023-05-13T03:06:42.895Z,83.20
2023-05-13T03:09:17.731Z,83.20
2023-05-13T03:11:47.025Z,83.20
2023-05-13T03:14:17.850Z,83.20
2023-05-13T03:16:47.797Z,83.10
2023-05-13T03:19:17.172Z,83.10
2023-05-13T03:21:45.365Z,83.10
2023-05-13T03:24:17.231Z,83.10
2023-05-13T03:26:50.210Z,83.20
2023-05-13T03:29:20.924Z,83.20
2023-05-13T03:31:51.403Z,83.20
2023-05-13T03:34:21.117Z,83.30
2023-05-13T03:37:05.253Z,83.20
2023-05-13T03:39:42.089Z,83.30
2023-05-13T03:42:13.920Z,83.10
2023-05-13T03:44:50.840Z,83.50
2023-05-13T03:47:29.336Z,83.50
2023-05-13T03:50:01.363Z,83.50
2023-05-13T03:52:47.151Z,83.40
2023-05-13T03:55:22.420Z,83.60
2023-05-13T03:57:51.260Z,83.70
2023-05-13T04:00:19.637Z,83.70
2023-05-13T04:03:04.301Z,83.90
2023-05-13T04:05:32.499Z,83.90
2023-05-13T04:08:01.321Z,84.00
2023-05-13T04:10:33.513Z,84.00
2023-05-13T04:13:05.171Z,83.90
2023-05-13T04:15:38.212Z,83.70
2023-05-13T04:18:11.669Z,83.80
2023-05-13T04:20:47.621Z,83.80
2023-05-13T04:23:38.443Z,83.90
2023-05-13T04:26:09.473Z,83.70
2023-05-13T04:28:39.970Z,83.90
2023-05-13T04:31:09.369Z,84.00
2023-05-13T04:33:37.720Z,84.00
2023-05-13T04:36:15.323Z,83.90
2023-05-13T04:38:46.856Z,84.00
2023-05-13T04:41:17.599Z,83.90
2023-05-13T04:43:48.366Z,83.90
2023-05-13T04:46:17.010Z,83.90
2023-05-13T04:48:56.443Z,83.80
2023-05-13T04:51:35.564Z,83.90
2023-05-13T04:54:06.396Z,84.00
2023-05-13T04:56:45.735Z,83.90
2023-05-13T04:59:16.040Z,83.90
2023-05-13T05:01:44.182Z,83.90
2023-05-13T05:04:13.526Z,83.90
2023-05-13T05:06:42.771Z,84.00
2023-05-13T05:09:11.066Z,83.80
2023-05-13T05:11:54.069Z,83.90
2023-05-13T05:14:22.310Z,83.90
2023-05-13T05:16:51.132Z,83.80
2023-05-13T05:19:35.510Z,83.70
2023-05-13T05:22:06.625Z,83.60
2023-05-13T05:24:38.017Z,83.70
2023-05-13T05:27:09.806Z,83.50
2023-05-13T05:29:40.266Z,83.50
2023-05-13T05:32:11.589Z,83.40
2023-05-13T05:34:48.390Z,83.50
2023-05-13T05:37:19.731Z,83.40
2023-05-13T05:39:47.905Z,83.40
2023-05-13T05:42:28.512Z,83.20
2023-05-13T05:45:02.021Z,83.20
2023-05-13T05:47:32.602Z,83.10
2023-05-13T05:50:06.467Z,82.90
2023-05-13T05:52:37.660Z,82.70
2023-05-13T05:55:10.520Z,82.90
2023-05-13T05:57:53.895Z,82.70
2023-05-13T06:00:30.852Z,82.70
2023-05-13T06:03:00.972Z,82.50
2023-05-13T06:05:40.704Z,82.40
2023-05-13T06:08:11.509Z,82.40
2023-05-13T06:10:40.245Z,82.40
2023-05-13T06:13:14.922Z,82.50
2023-05-13T06:15:44.575Z,82.50
2023-05-13T06:18:15.247Z,82.40
2023-05-13T06:20:56.352Z,82.30
2023-05-13T06:23:25.535Z,82.40
2023-05-13T06:25:54.976Z,82.40
2023-05-13T06:28:28.077Z,82.60
2023-05-13T06:30:58.006Z,82.60
2023-05-13T06:33:36.371Z,82.60
2023-05-13T06:36:06.088Z,82.80
2023-05-13T06:38:34.966Z,82.70
2023-05-13T06:41:11.180Z,82.60
2023-05-13T06:43:58.134Z,82.60
2023-05-13T06:46:29.967Z,82.50
2023-05-13T06:49:01.588Z,82.60
2023-05-13T06:51:33.564Z,82.70
2023-05-13T06:54:02.520Z,82.60
2023-05-13T06:56:47.372Z,82.10
2023-05-13T06:59:20.429Z,82.10
2023-05-13T07:01:50.541Z,81.90
2023-05-13T07:04:23.879Z,81.70
2023-05-13T07:06:57.398Z,81.50
2023-05-13T07:09:29.173Z,81.60
2023-05-13T07:12:00.962Z,81.40
2023-05-13T07:14:33.298Z,81.00
2023-05-13T07:17:03.892Z,80.80
2023-05-13T07:19:34.531Z,80.90
2023-05-13T07:22:05.099Z,80.90
2023-05-13T07:24:33.462Z,80.60
2023-05-13T07:27:09.978Z,80.40
2023-05-13T07:29:49.422Z,80.30
2023-05-13T07:32:18.944Z,79.70
2023-05-13T07:35:04.674Z,79.80
2023-05-13T07:37:33.094Z,79.40
2023-05-13T07:40:01.471Z,79.90
2023-05-13T07:42:46.259Z,79.80
2023-05-13T07:45:32.192Z,79.70
2023-05-13T07:48:01.432Z,79.60
2023-05-13T07:50:35.118Z,79.50
2023-05-13T07:53:17.681Z,79.60
2023-05-13T07:55:50.622Z,79.30
2023-05-13T07:58:21.163Z,79.10
2023-05-13T08:00:51.092Z,79.10
2023-05-13T08:03:19.382Z,79.10
2023-05-13T08:05:48.153Z,78.70
2023-05-13T08:08:16.301Z,78.50
2023-05-13T08:10:44.600Z,78.10
2023-05-13T08:13:12.736Z,77.50
2023-05-13T08:15:42.722Z,77.60
2023-05-13T08:18:12.261Z,76.90
2023-05-13T08:20:40.909Z,76.50
2023-05-13T08:23:09.043Z,76.30
2023-05-13T08:25:37.244Z,75.80
2023-05-13T08:28:05.566Z,75.70
2023-05-13T08:30:44.429Z,75.90
2023-05-13T08:33:14.064Z,75.30
2023-05-13T08:35:44.668Z,74.80
2023-05-13T08:38:13.066Z,74.70
2023-05-13T08:40:42.777Z,74.20
2023-05-13T08:43:13.657Z,74.60
2023-05-13T08:45:43.003Z,74.40
2023-05-13T08:48:13.595Z,74.10
2023-05-13T08:50:41.915Z,73.80
2023-05-13T08:53:16.299Z,73.70
2023-05-13T08:55:44.476Z,73.40
2023-05-13T08:58:13.014Z,73.40
2023-05-13T09:00:41.505Z,73.30
2023-05-13T09:03:10.265Z,73.70
2023-05-13T09:05:39.986Z,74.20
2023-05-13T09:08:09.961Z,74.00
2023-05-13T09:10:38.467Z,74.10
2023-05-13T09:13:07.229Z,73.60
2023-05-13T09:15:35.630Z,73.80
2023-05-13T09:18:06.518Z,73.40
2023-05-13T09:20:36.138Z,73.20
2023-05-13T09:23:07.761Z,73.10
2023-05-13T09:25:37.667Z,72.90
2023-05-13T09:28:07.832Z,72.80
2023-05-13T09:30:38.638Z,72.10
2023-05-13T09:33:10.165Z,72.00
2023-05-13T09:35:40.907Z,71.90
2023-05-13T09:38:19.075Z,71.50
2023-05-13T09:40:53.820Z,71.30
2023-05-13T09:43:24.249Z,71.20
2023-05-13T09:45:55.418Z,70.70
2023-05-13T09:48:23.954Z,70.40
2023-05-13T09:50:57.158Z,70.20
2023-05-13T09:53:30.916Z,69.90
2023-05-13T09:56:01.952Z,69.70
2023-05-13T09:58:31.353Z,70.00
2023-05-13T10:01:00.852Z,68.70
2023-05-13T10:03:31.894Z,69.30
2023-05-13T10:06:04.382Z,68.80
2023-05-13T10:08:37.211Z,69.00
2023-05-13T10:11:10.446Z,69.00
2023-05-13T10:13:40.780Z,68.80
2023-05-13T10:16:09.427Z,68.80
2023-05-13T10:18:37.853Z,69.10
2023-05-13T10:21:06.831Z,69.40
2023-05-13T10:23:36.487Z,69.20
2023-05-13T10:26:05.146Z,69.90
2023-05-13T10:28:33.867Z,70.20
2023-05-13T10:31:02.036Z,70.30
2023-05-13T10:33:30.213Z,70.40
2023-05-13T10:36:12.315Z,70.50
2023-05-13T10:38:54.602Z,70.90
2023-05-13T10:41:58.026Z,70.80
2023-05-13T10:44:26.203Z,71.40
2023-05-13T10:46:57.187Z,71.40
2023-05-13T10:49:26.370Z,71.10
2023-05-13T10:51:55.313Z,70.70
2023-05-13T10:54:25.907Z,70.00
2023-05-13T10:56:58.711Z,69.90
2023-05-13T10:59:30.575Z,69.70
2023-05-13T11:02:02.131Z,69.60
2023-05-13T11:04:32.444Z,70.20
2023-05-13T11:07:15.944Z,70.20
2023-05-13T11:09:51.180Z,70.10
2023-05-13T11:12:19.322Z,69.50
2023-05-13T11:14:47.664Z,69.00
2023-05-13T11:17:20.712Z,69.00
2023-05-13T11:19:51.541Z,68.40
2023-05-13T11:22:22.042Z,68.20
2023-05-13T11:25:06.763Z,68.40
2023-05-13T11:27:39.760Z,68.10
2023-05-13T11:30:09.511Z,68.00
2023-05-13T11:32:56.762Z,67.90
2023-05-13T11:35:26.185Z,68.10
2023-05-13T11:37:55.548Z,67.80
2023-05-13T11:40:28.133Z,67.60
2023-05-13T11:42:56.442Z,67.30
2023-05-13T11:45:25.979Z,66.70
2023-05-13T11:47:55.191Z,66.40
2023-05-13T11:50:24.623Z,66.70
2023-05-13T11:52:53.737Z,66.30
2023-05-13T11:55:36.472Z,65.10
2023-05-13T11:58:05.141Z,65.00
2023-05-13T12:00:34.645Z,65.60
2023-05-13T12:03:11.755Z,65.20
2023-05-13T12:05:40.319Z,64.80
2023-05-13T12:08:10.687Z,65.00
2023-05-13T12:10:45.554Z,63.90
2023-05-13T12:13:14.185Z,64.30
2023-05-13T12:15:43.252Z,64.60
2023-05-13T12:18:11.554Z,64.10
2023-05-13T12:20:39.855Z,63.00
2023-05-13T12:23:07.964Z,61.90
2023-05-13T12:25:41.426Z,62.40
2023-05-13T12:28:13.824Z,62.80
2023-05-13T12:30:44.243Z,63.70
2023-05-13T12:33:16.752Z,63.40
2023-05-13T12:35:45.142Z,64.00
2023-05-13T12:38:18.302Z,63.80
2023-05-13T12:40:47.429Z,64.40
2023-05-13T12:43:18.142Z,64.50
2023-05-13T12:45:47.783Z,64.40
2023-05-13T12:48:16.055Z,64.20
2023-05-13T12:50:44.150Z,64.30
2023-05-13T12:53:12.696Z,63.90
2023-05-13T12:55:40.856Z,63.90
2023-05-13T12:58:12.272Z,62.70
2023-05-13T13:00:41.887Z,62.80
2023-05-13T13:03:10.384Z,63.50
2023-05-13T13:05:38.714Z,63.60
2023-05-13T13:08:07.174Z,63.70
2023-05-13T13:10:35.341Z,64.10
2023-05-13T13:13:03.570Z,64.60
2023-05-13T13:15:31.819Z,64.90
2023-05-13T13:18:01.484Z,64.20
2023-05-13T13:20:29.715Z,64.10
2023-05-13T13:22:59.879Z,64.00
2023-05-13T13:25:29.117Z,63.90
2023-05-13T13:27:57.286Z,63.70
2023-05-13T13:30:25.517Z,63.60
2023-05-13T13:32:53.808Z,63.10
2023-05-13T13:35:23.669Z,62.90
2023-05-13T13:37:51.865Z,62.40
2023-05-13T13:40:20.228Z,62.20
2023-05-13T13:42:48.593Z,61.80
2023-05-13T13:45:16.874Z,61.20
2023-05-13T13:47:45.105Z,60.50
2023-05-13T13:50:13.378Z,60.20
2023-05-13T13:52:42.949Z,59.20
2023-05-13T13:55:12.602Z,59.90
2023-05-13T13:57:40.705Z,59.60
2023-05-13T14:00:10.210Z,58.70
2023-05-13T14:02:38.650Z,58.10
2023-05-13T14:05:07.959Z,58.00
2023-05-13T14:07:36.899Z,57.00
2023-05-13T14:10:08.065Z,57.10
2023-05-13T14:12:36.876Z,56.20
2023-05-13T14:15:05.868Z,56.10
2023-05-13T14:17:34.133Z,55.20
2023-05-13T14:20:02.433Z,54.50
2023-05-13T14:22:30.621Z,54.50
2023-05-13T14:25:00.141Z,53.90
2023-05-13T14:27:30.387Z,54.10
2023-05-13T14:29:59.073Z,55.00
2023-05-13T14:32:27.280Z,55.30
2023-05-13T14:34:55.507Z,55.20
2023-05-13T14:37:23.632Z,55.00
2023-05-13T14:39:51.778Z,55.20
2023-05-13T14:42:21.224Z,54.90
2023-05-13T14:44:50.704Z,54.50
2023-05-13T14:47:18.817Z,54.50
2023-05-13T14:49:46.968Z,54.80
2023-05-13T14:52:15.062Z,54.90
2023-05-13T14:54:43.261Z,53.50
2023-05-13T14:57:12.010Z,53.70
2023-05-13T14:59:40.118Z,54.00
2023-05-13T15:02:09.641Z,54.30
2023-05-13T15:04:37.928Z,54.60
2023-05-13T15:07:06.535Z,54.40
2023-05-13T15:09:34.685Z,54.70
2023-05-13T15:12:02.793Z,54.30
2023-05-13T15:14:30.927Z,54.10
2023-05-13T15:17:00.038Z,53.50
2023-05-13T15:19:29.674Z,53.30
2023-05-13T15:21:57.772Z,53.50
2023-05-13T15:24:25.912Z,53.40
2023-05-13T15:26:54.044Z,53.60
2023-05-13T15:29:22.172Z,53.20
2023-05-13T15:31:51.753Z,53.60
2023-05-13T15:34:19.945Z,53.40
2023-05-13T15:36:49.412Z,53.40
2023-05-13T15:39:17.711Z,52.80
2023-05-13T15:41:46.513Z,51.90
2023-05-13T15:44:14.654Z,49.10
2023-05-13T15:46:43.129Z,46.30
2023-05-13T15:49:11.310Z,45.50
2023-05-13T15:51:39.458Z,45.70
2023-05-13T15:54:09.078Z,46.50
2023-05-13T15:56:37.256Z,45.40
2023-05-13T15:59:05.445Z,44.80
2023-05-13T16:01:33.644Z,44.00
2023-05-13T16:04:01.856Z,43.50
2023-05-13T16:06:30.083Z,43.10
2023-05-13T16:08:58.257Z,42.80
2023-05-13T16:11:27.865Z,41.40
2023-05-13T16:13:56.118Z,41.00
2023-05-13T16:16:24.563Z,40.40
2023-05-13T16:18:52.755Z,39.60
2023-05-13T16:21:21.268Z,41.80
2023-05-13T16:23:51.027Z,42.90
2023-05-13T16:26:19.364Z,40.10
2023-05-13T16:28:48.887Z,42.60
2023-05-13T16:31:16.987Z,44.80
2023-05-13T16:33:45.161Z,45.60
2023-05-13T16:36:13.433Z,43.60
2023-05-13T16:38:43.009Z,40.00
2023-05-13T16:41:12.101Z,38.30
2023-05-13T16:43:42.537Z,36.40
2023-05-13T16:46:16.709Z,35.70
2023-05-13T16:48:50.005Z,35.00
2023-05-13T16:51:21.761Z,35.30
2023-05-13T16:53:55.529Z,35.00
2023-05-13T16:56:25.673Z,35.50
2023-05-13T16:59:06.201Z,38.10
2023-05-13T17:01:40.761Z,40.60
2023-05-13T17:04:12.272Z,42.90
2023-05-13T17:06:43.831Z,44.50
2023-05-13T17:09:28.165Z,45.30
2023-05-13T17:11:59.769Z,45.50
2023-05-13T17:14:28.041Z,46.00
2023-05-13T17:16:57.571Z,46.60
2023-05-13T17:19:25.696Z,46.90
2023-05-13T17:21:53.824Z,47.30
2023-05-13T17:24:22.369Z,47.80
2023-05-13T17:26:50.889Z,48.00
2023-05-13T17:29:19.096Z,48.80
2023-05-13T17:31:48.270Z,49.30
2023-05-13T17:34:17.824Z,49.60
2023-05-13T17:36:47.428Z,49.70
2023-05-13T17:39:17.418Z,50.00
2023-05-13T17:41:46.175Z,50.30
2023-05-13T17:44:15.155Z,50.70
2023-05-13T17:46:43.285Z,51.10
2023-05-13T17:49:11.582Z,51.50
2023-05-13T17:51:41.943Z,51.80
2023-05-13T17:54:11.470Z,52.10
2023-05-13T17:56:39.634Z,52.50
2023-05-13T17:59:08.397Z,52.80
2023-05-13T18:01:36.536Z,53.10
2023-05-13T18:04:04.707Z,53.40
2023-05-13T18:06:32.832Z,53.60
2023-05-13T18:09:02.710Z,54.10
2023-05-13T18:11:31.715Z,54.20
2023-05-13T18:13:59.849Z,54.50
2023-05-13T18:16:29.206Z,54.70
2023-05-13T18:21:55.937Z,55.00
2023-05-13T18:24:27.587Z,55.20
2023-05-13T18:27:00.042Z,55.40
2023-05-13T18:29:28.184Z,55.60
2023-05-13T18:31:56.415Z,55.60
2023-05-13T18:34:24.742Z,55.70
2023-05-13T18:36:53.082Z,55.70
2023-05-13T18:39:21.793Z,56.00
2023-05-13T18:41:51.413Z,56.30
2023-05-13T18:44:19.639Z,56.40
2023-05-13T18:46:47.901Z,56.60
2023-05-13T18:49:16.008Z,56.80
2023-05-13T18:51:45.379Z,57.10
2023-05-13T18:54:13.613Z,57.40
2023-05-13T18:56:42.122Z,57.50
2023-05-13T18:59:11.989Z,57.80
2023-05-13T19:01:40.339Z,57.90
2023-05-13T19:04:08.654Z,58.10
2023-05-13T19:06:38.066Z,58.20
2023-05-13T19:09:06.290Z,58.30
2023-05-13T19:11:34.674Z,58.40
2023-05-13T19:14:02.890Z,58.80
2023-05-13T19:16:32.437Z,58.90
2023-05-13T19:19:03.401Z,59.00
2023-05-13T19:21:34.065Z,59.30
2023-05-13T19:29:35.825Z,59.70
2023-05-13T19:32:12.186Z,59.80
2023-05-13T19:34:41.858Z,60.00
2023-05-13T19:37:10.096Z,60.10
2023-05-13T19:39:39.417Z,60.20
2023-05-13T19:44:56.685Z,60.30
2023-05-13T19:47:46.853Z,60.40
2023-05-13T19:50:17.080Z,60.60
2023-05-13T19:52:45.362Z,60.90
2023-05-13T19:55:14.264Z,61.00
2023-05-13T19:57:43.079Z,61.20
2023-05-13T20:00:13.384Z,61.40
2023-05-13T20:02:49.969Z,61.50
2023-05-13T20:05:18.332Z,61.60
2023-05-13T20:07:48.530Z,61.80
2023-05-13T20:10:19.168Z,61.90
2023-05-13T20:12:59.205Z,61.80
2023-05-13T20:15:27.983Z,61.70
2023-05-13T20:17:57.598Z,61.70
2023-05-13T20:20:25.826Z,61.60
2023-05-13T20:22:54.165Z,61.60
2023-05-13T20:25:22.397Z,61.70
2023-05-13T20:27:50.665Z,61.70
2023-05-13T20:30:20.929Z,61.90
2023-05-13T20:32:49.208Z,61.90
2023-05-13T20:35:19.013Z,62.00
2023-05-13T20:37:47.154Z,62.10
2023-05-13T20:40:15.286Z,62.20
2023-05-13T20:42:43.566Z,62.30
2023-05-13T20:45:12.872Z,62.40
2023-05-13T20:47:41.017Z,62.50
2023-05-13T20:50:10.165Z,62.70
2023-05-13T20:52:39.668Z,62.80
2023-05-13T20:55:08.825Z,62.90
2023-05-13T20:57:36.980Z,63.00
2023-05-13T21:00:05.903Z,63.20
2023-05-13T21:02:34.062Z,63.50
2023-05-13T21:05:02.225Z,63.90
2023-05-13T21:07:30.387Z,64.20
2023-05-13T21:09:59.904Z,64.60
2023-05-13T21:12:28.144Z,64.90
2023-05-13T21:14:56.318Z,65.20
2023-05-13T21:17:24.896Z,65.50
2023-05-13T21:19:53.118Z,65.90
2023-05-13T21:22:21.416Z,66.20
2023-05-13T21:24:50.456Z,66.40
2023-05-13T21:27:19.946Z,66.70
2023-05-13T21:29:48.300Z,66.90
2023-05-13T21:32:16.834Z,67.10
2023-05-13T21:34:44.941Z,67.30
2023-05-13T21:37:13.277Z,67.60
2023-05-13T21:39:41.442Z,67.80
2023-05-13T21:42:09.584Z,68.00
2023-05-13T21:44:39.067Z,68.10
2023-05-13T21:47:07.352Z,68.30
2023-05-13T21:49:35.586Z,68.60
2023-05-13T21:52:03.710Z,68.60
2023-05-13T21:54:31.819Z,69.00
2023-05-13T21:56:59.950Z,69.10
2023-05-13T21:59:28.105Z,69.20
2023-05-13T22:01:57.694Z,69.30
2023-05-13T22:04:26.809Z,69.30
2023-05-13T22:06:55.187Z,69.40
2023-05-13T22:09:23.330Z,69.70
2023-05-13T22:11:51.791Z,69.90
2023-05-13T22:14:19.942Z,69.90
2023-05-13T22:17:00.881Z,70.10
2023-05-13T22:19:37.168Z,70.20
2023-05-13T22:22:05.690Z,70.40
2023-05-13T22:24:33.848Z,70.40
2023-05-13T22:27:02.025Z,70.90
2023-05-13T22:29:30.186Z,71.10
2023-05-13T22:31:58.429Z,71.30
2023-05-13T22:34:27.496Z,71.30
2023-05-13T22:36:57.003Z,71.30
2023-05-13T22:39:27.004Z,71.60
2023-05-13T22:41:55.764Z,71.70
2023-05-13T22:44:24.079Z,71.70
2023-05-13T22:46:54.149Z,72.00
2023-05-13T22:49:22.366Z,72.00
2023-05-13T22:51:50.467Z,72.10
2023-05-13T22:54:19.990Z,72.20
2023-05-13T22:56:48.127Z,72.30
2023-05-13T22:59:16.216Z,72.40
2023-05-13T23:01:44.470Z,72.40
2023-05-13T23:04:12.621Z,72.50
2023-05-13T23:06:40.843Z,72.70
2023-05-13T23:09:10.353Z,72.80
2023-05-13T23:11:40.001Z,72.90
2023-05-13T23:14:08.182Z,72.90
2023-05-13T23:16:36.826Z,72.90
2023-05-13T23:19:05.192Z,73.10
2023-05-13T23:21:33.461Z,73.20
2023-05-13T23:24:01.604Z,73.40
2023-05-13T23:26:29.722Z,73.60
2023-05-13T23:28:59.222Z,73.70
2023-05-13T23:31:27.417Z,74.00
2023-05-13T23:33:55.715Z,74.10
2023-05-13T23:36:23.822Z,74.30
2023-05-13T23:38:51.967Z,74.40
2023-05-13T23:41:20.226Z,74.60
2023-05-13T23:43:50.513Z,74.60
2023-05-13T23:46:20.091Z,74.80
2023-05-13T23:48:48.210Z,74.90
2023-05-13T23:51:16.345Z,75.00
2023-05-13T23:53:44.686Z,74.90
2023-05-13T23:56:12.917Z,75.00
2023-05-13T23:58:41.364Z,75.10
